createdAt,value
2023-05-09T00:04:35.362Z,100982.00
2023-05-09T00:09:39.633Z,100974.41
2023-05-09T00:14:45.268Z,100965.28
2023-05-09T00:19:48.040Z,100969.25
2023-05-09T00:24:52.474Z,100972.25
2023-05-09T00:29:55.372Z,100960.19
2023-05-09T00:34:58.144Z,100958.66
2023-05-09T00:40:02.338Z,100950.59
2023-05-09T00:45:07.007Z,100951.38
2023-05-09T00:50:10.960Z,100947.81
2023-05-09T00:55:16.086Z,100948.16
2023-05-09T01:00:19.658Z,100935.38
2023-05-09T01:05:22.426Z,100936.34
2023-05-09T01:10:32.170Z,100939.03
2023-05-09T01:15:37.619Z,100936.00
2023-05-09T01:20:45.509Z,100935.16
2023-05-09T01:25:56.178Z,100937.94
2023-05-09T01:31:00.416Z,100931.91
2023-05-09T01:36:05.193Z,100926.75
2023-05-09T01:41:08.705Z,100920.72
2023-05-09T01:46:12.832Z,100924.59
2023-05-09T01:51:15.601Z,100928.47
2023-05-09T01:56:18.364Z,100930.47
2023-05-09T02:01:22.680Z,100930.38
2023-05-09T02:06:25.562Z,100938.66
2023-05-09T02:11:28.316Z,100930.81
2023-05-09T02:16:32.523Z,100918.53
2023-05-09T02:21:35.424Z,100913.50
2023-05-09T02:26:38.181Z,100917.06
2023-05-09T02:31:42.651Z,100921.78
2023-05-09T02:36:45.569Z,100913.81
2023-05-09T02:41:51.150Z,100907.78
2023-05-09T02:46:55.989Z,100915.91
2023-05-09T02:51:58.694Z,100920.63
2023-05-09T02:57:01.424Z,100908.28
2023-05-09T03:02:06.430Z,100915.47
2023-05-09T03:07:09.653Z,100907.63
2023-05-09T03:12:12.578Z,100903.34
2023-05-09T03:17:17.297Z,100904.38
2023-05-09T03:22:20.628Z,100888.28
2023-05-09T03:27:32.372Z,100894.63
2023-05-09T03:32:37.153Z,100897.75
2023-05-09T03:37:40.236Z,100897.81
2023-05-09T03:42:44.039Z,100899.00
2023-05-09T03:47:48.277Z,100896.41
2023-05-09T03:52:51.542Z,100893.84
2023-05-09T03:57:54.524Z,100899.28
2023-05-09T04:02:59.398Z,100901.03
2023-05-09T04:08:08.749Z,100896.72
2023-05-09T04:13:11.778Z,100896.72
2023-05-09T04:18:16.417Z,100879.88
2023-05-09T04:23:20.376Z,100885.13
2023-05-09T04:28:23.716Z,100887.91
2023-05-09T04:33:29.068Z,100884.25
2023-05-09T04:38:36.326Z,100877.19
2023-05-09T04:43:43.375Z,100882.44
2023-05-09T04:48:47.759Z,100878.69
2023-05-09T04:53:50.806Z,100876.78
2023-05-09T04:58:56.000Z,100877.53
2023-05-09T05:04:00.306Z,100872.94
2023-05-09T05:09:03.824Z,100875.50
2023-05-09T05:14:06.998Z,100866.50
2023-05-09T05:19:11.906Z,100859.97
2023-05-09T05:24:16.763Z,100857.19
2023-05-09T05:29:20.373Z,100852.69
2023-05-09T05:34:24.601Z,100847.19
2023-05-09T05:39:27.829Z,100837.34
2023-05-09T05:44:30.937Z,100833.38
2023-05-09T05:49:35.589Z,100830.47
2023-05-09T05:54:39.248Z,100827.69
2023-05-09T05:59:42.113Z,100823.00
2023-05-09T06:04:46.730Z,100829.03
2023-05-09T06:09:49.605Z,100824.41
2023-05-09T06:14:52.744Z,100818.06
2023-05-09T06:19:57.162Z,100815.84
2023-05-09T06:25:00.014Z,100806.72
2023-05-09T06:30:11.204Z,100795.97
2023-05-09T06:35:22.213Z,100797.50
2023-05-09T06:40:25.013Z,100799.97
2023-05-09T06:45:28.171Z,100799.72
2023-05-09T06:50:33.013Z,100796.09
2023-05-09T06:55:36.104Z,100783.31
2023-05-09T07:00:39.003Z,100786.00
2023-05-09T07:05:43.697Z,100775.16
2023-05-09T07:10:46.533Z,100774.91
2023-05-09T07:15:49.540Z,100760.53
2023-05-09T07:20:53.886Z,100743.66
2023-05-09T07:25:59.507Z,100749.34
2023-05-09T07:31:02.358Z,100748.47
2023-05-09T07:36:06.941Z,100738.91
2023-05-09T07:41:09.872Z,100735.81
2023-05-09T07:46:12.985Z,100724.94
2023-05-09T07:51:17.267Z,100727.94
2023-05-09T07:56:20.039Z,100721.22
2023-05-09T08:01:22.894Z,100705.78
2023-05-09T08:06:27.342Z,100702.88
2023-05-09T08:11:30.593Z,100686.72
2023-05-09T08:16:33.443Z,100695.06
2023-05-09T08:21:37.652Z,100685.06
2023-05-09T08:26:40.673Z,100684.44
2023-05-09T08:31:43.670Z,100668.59
2023-05-09T08:36:48.337Z,100655.06
2023-05-09T08:41:51.168Z,100641.44
2023-05-09T08:46:54.120Z,100649.72
2023-05-09T08:51:58.360Z,100648.38
2023-05-09T08:57:01.290Z,100646.72
2023-05-09T09:02:07.382Z,100631.63
2023-05-09T09:07:11.896Z,100633.31
2023-05-09T09:12:15.336Z,100631.63
2023-05-09T09:17:20.612Z,100630.84
2023-05-09T09:22:24.767Z,100621.56
2023-05-09T09:27:27.903Z,100616.03
2023-05-09T09:38:00.240Z,100609.81
2023-05-09T09:43:03.374Z,100602.00
2023-05-09T09:48:07.306Z,100587.22
2023-05-09T09:53:11.572Z,100573.50
2023-05-09T09:58:17.918Z,100582.06
2023-05-09T10:03:20.926Z,100582.38
2023-05-09T10:08:25.303Z,100569.09
2023-05-09T10:13:28.292Z,100561.69
2023-05-09T10:18:31.905Z,100555.16
2023-05-09T10:23:38.651Z,100533.50
2023-05-09T10:28:42.597Z,100532.19
2023-05-09T10:33:48.014Z,100532.38
2023-05-09T10:38:52.588Z,100525.19
2023-05-09T10:43:57.070Z,100517.56
2023-05-09T10:48:59.894Z,100495.50
2023-05-09T10:54:04.123Z,100481.69
2023-05-09T10:59:06.918Z,100476.09
2023-05-09T11:04:11.141Z,100481.44
2023-05-09T11:09:34.906Z,100467.66
2023-05-09T11:14:42.534Z,100464.53
2023-05-09T11:20:02.122Z,100449.81
2023-05-09T11:25:07.368Z,100432.50
2023-05-09T11:30:11.520Z,100436.41
2023-05-09T11:35:15.617Z,100426.16
2023-05-09T11:40:21.111Z,100424.84
2023-05-09T11:45:24.937Z,100422.69
2023-05-09T11:50:27.868Z,100419.38
2023-05-09T11:55:32.738Z,100410.13
2023-05-09T12:00:37.260Z,100397.56
2023-05-09T12:05:40.169Z,100377.53
2023-05-09T12:10:44.683Z,100382.69
2023-05-09T12:15:47.620Z,100362.66
2023-05-09T12:20:51.152Z,100349.34
2023-05-09T12:25:55.997Z,100338.75
2023-05-09T12:30:58.941Z,100317.75
2023-05-09T12:36:03.950Z,100319.81
2023-05-09T12:41:18.187Z,100317.50
2023-05-09T12:46:25.576Z,100312.59
2023-05-09T12:51:28.528Z,100292.44
2023-05-09T12:56:36.576Z,100288.53
2023-05-09T13:01:39.423Z,100279.59
2023-05-09T13:06:49.019Z,100253.34
2023-05-09T13:11:53.347Z,100253.59
2023-05-09T13:16:56.261Z,100247.69
2023-05-09T13:21:59.213Z,100248.69
2023-05-09T13:27:03.640Z,100238.16
2023-05-09T13:32:07.160Z,100232.38
2023-05-09T13:37:10.048Z,100210.78
2023-05-09T13:42:18.429Z,100203.28
2023-05-09T13:47:22.292Z,100206.19
2023-05-09T13:52:25.180Z,100193.31
2023-05-09T13:57:29.560Z,100191.69
2023-05-09T14:02:32.423Z,100187.16
2023-05-09T14:07:35.327Z,100170.69
2023-05-09T14:12:40.695Z,100175.50
2023-05-09T14:17:43.905Z,100183.34
2023-05-09T14:22:46.793Z,100164.50
2023-05-09T14:27:51.449Z,100162.97
2023-05-09T14:32:54.243Z,100167.97
2023-05-09T14:37:56.990Z,100160.75
2023-05-09T14:43:02.497Z,100162.78
2023-05-09T14:48:05.662Z,100155.00
2023-05-09T14:53:09.215Z,100149.59
2023-05-09T14:58:14.377Z,100149.69
2023-05-09T15:03:17.243Z,100142.63
2023-05-09T15:08:20.064Z,100137.13
2023-05-09T15:13:24.376Z,100126.78
2023-05-09T15:18:28.687Z,100126.63
2023-05-09T15:23:31.627Z,100130.63
2023-05-09T15:28:36.121Z,100117.97
2023-05-09T15:33:39.024Z,100112.63
2023-05-09T15:38:42.181Z,100113.59
2023-05-09T15:43:46.492Z,100100.41
2023-05-09T15:48:49.271Z,100092.69
2023-05-09T15:53:52.379Z,100087.28
2023-05-09T15:58:56.659Z,100082.09
2023-05-09T16:04:00.147Z,100068.31
2023-05-09T16:09:04.433Z,100074.28
2023-05-09T16:14:11.266Z,100057.75
2023-05-09T16:19:14.305Z,100048.13
2023-05-09T16:24:17.401Z,100043.16
2023-05-09T16:29:22.330Z,100026.75
2023-05-09T16:34:25.159Z,100035.34
2023-05-09T16:39:28.262Z,100029.63
2023-05-09T16:44:32.421Z,100020.16
2023-05-09T16:49:35.283Z,100025.94
2023-05-09T16:54:38.094Z,100008.72
2023-05-09T16:59:42.326Z,99998.44
2023-05-09T17:04:45.400Z,99987.75
2023-05-09T17:09:49.502Z,99987.09
2023-05-09T17:14:53.871Z,99972.16
2023-05-09T17:19:57.572Z,99955.00
2023-05-09T17:25:00.431Z,99953.53
2023-05-09T17:30:05.579Z,99946.69
2023-05-09T17:35:09.258Z,99950.22
2023-05-09T17:40:12.544Z,99952.94
2023-05-09T17:45:16.929Z,99959.41
2023-05-09T17:50:20.761Z,99946.91
2023-05-09T17:55:23.622Z,99951.84
2023-05-09T18:00:27.787Z,99949.38
2023-05-09T18:05:30.654Z,99949.78
2023-05-09T18:10:33.396Z,99949.84
2023-05-09T18:15:38.475Z,99949.59
2023-05-09T18:20:41.431Z,99958.94
2023-05-09T18:25:44.388Z,99952.28
2023-05-09T18:30:49.045Z,99950.75
2023-05-09T18:35:52.074Z,99958.06
2023-05-09T18:40:54.899Z,99959.16
2023-05-09T18:45:59.058Z,99957.63
2023-05-09T18:51:01.930Z,99955.72
2023-05-09T18:56:05.735Z,99956.41
2023-05-09T19:01:11.741Z,99949.47
2023-05-09T19:06:15.274Z,99955.03
2023-05-09T19:11:18.066Z,99953.34
2023-05-09T19:16:22.486Z,99962.31
2023-05-09T19:21:25.548Z,99957.94
2023-05-09T19:26:28.303Z,99954.41
2023-05-09T19:31:32.680Z,99960.78
2023-05-09T19:36:35.504Z,99956.69
2023-05-09T19:41:38.437Z,99952.88
2023-05-09T19:46:43.867Z,99945.66
2023-05-09T19:51:46.785Z,99933.16
2023-05-09T19:56:49.589Z,99936.25
2023-05-09T20:01:53.835Z,99925.94
2023-05-09T20:06:56.634Z,99921.22
2023-05-09T20:11:59.847Z,99899.41
2023-05-09T20:17:05.152Z,99911.06
2023-05-09T20:22:08.784Z,99914.16
2023-05-09T20:27:11.855Z,99907.75
2023-05-09T20:32:16.134Z,99913.31
2023-05-09T20:37:18.932Z,99904.22
2023-05-09T20:42:23.234Z,99898.28
2023-05-09T20:47:27.504Z,99901.53
2023-05-09T20:52:30.257Z,99891.03
2023-05-09T20:57:33.299Z,99888.03
2023-05-09T21:02:37.612Z,99874.88
2023-05-09T21:07:40.681Z,99881.97
2023-05-09T21:12:43.664Z,99879.97
2023-05-09T21:17:47.886Z,99878.09
2023-05-09T21:22:50.795Z,99868.88
2023-05-09T21:27:53.695Z,99864.47
2023-05-09T21:32:57.864Z,99857.22
2023-05-09T21:38:00.687Z,99852.00
2023-05-09T21:43:03.721Z,99859.56
2023-05-09T21:48:08.080Z,99844.53
2023-05-09T21:53:11.023Z,99845.38
2023-05-09T21:58:14.147Z,99847.06
2023-05-09T22:03:18.423Z,99839.16
2023-05-09T22:08:21.257Z,99842.09
2023-05-09T22:13:24.151Z,99839.53
2023-05-09T22:18:28.413Z,99837.59
2023-05-09T22:23:31.191Z,99833.50
2023-05-09T22:28:34.041Z,99834.78
2023-05-09T22:33:38.230Z,99822.78
2023-05-09T22:38:40.991Z,99823.66
2023-05-09T22:43:43.828Z,99822.97
2023-05-09T22:48:47.944Z,99813.47
2023-05-09T22:53:50.691Z,99815.19
2023-05-09T22:58:53.549Z,99810.25
2023-05-09T23:03:57.664Z,99801.91
2023-05-09T23:09:00.444Z,99799.22
2023-05-09T23:14:03.383Z,99799.53
2023-05-09T23:19:07.492Z,99797.97
2023-05-09T23:24:10.260Z,99800.25
2023-05-09T23:29:13.055Z,99800.66
2023-05-09T23:34:17.450Z,99799.78
2023-05-09T23:39:20.201Z,99784.50
2023-05-09T23:44:22.936Z,99789.78
2023-05-09T23:49:27.182Z,99789.34
2023-05-09T23:54:29.936Z,99780.88
2023-05-09T23:59:32.917Z,99771.38
